createdAt,value
2022-08-22T00:01:33.646Z,2.38
2022-08-22T00:02:44.326Z,1.27
2022-08-22T00:02:59.616Z,1.50
2022-08-22T00:03:11.930Z,2.13
2022-08-22T00:04:07.437Z,1.95
2022-08-22T00:06:56.725Z,1.90
2022-08-22T00:09:34.132Z,1.55
2022-08-22T00:12:27.989Z,1.70
2022-08-22T00:15:01.024Z,1.63
2022-08-22T00:17:44.116Z,1.73
2022-08-22T00:20:52.066Z,1.70
2022-08-22T00:23:33.774Z,2.28
2022-08-22T00:26:23.285Z,1.90
2022-08-22T00:29:10.954Z,1.88
2022-08-22T00:31:50.505Z,2.13
2022-08-22T00:34:33.344Z,2.17
2022-08-22T00:37:14.603Z,2.25
2022-08-22T00:39:50.238Z,2.10
2022-08-22T00:42:36.659Z,2.35
2022-08-22T00:45:25.708Z,2.40
2022-08-22T00:48:41.338Z,2.45
2022-08-22T00:51:41.151Z,1.83
2022-08-22T00:54:32.617Z,2.40
2022-08-22T00:57:06.816Z,2.05
2022-08-22T00:59:41.642Z,2.15
2022-08-22T01:02:40.828Z,2.50
2022-08-22T01:05:28.425Z,2.20
2022-08-22T01:08:13.236Z,2.60
2022-08-22T01:11:11.078Z,2.50
2022-08-22T01:14:34.853Z,2.53
2022-08-22T01:17:38.360Z,2.28
2022-08-22T01:20:35.119Z,2.95
2022-08-22T01:23:19.269Z,3.00
2022-08-22T01:26:06.594Z,3.05
2022-08-22T01:29:28.470Z,2.92
2022-08-22T01:31:57.537Z,3.03
2022-08-22T01:34:51.170Z,3.22
2022-08-22T01:37:44.889Z,2.85
2022-08-22T01:40:23.046Z,3.25
2022-08-22T01:42:56.635Z,3.00
2022-08-22T01:45:55.849Z,2.90
2022-08-22T01:48:31.295Z,3.20
2022-08-22T01:51:19.205Z,2.53
2022-08-22T01:54:13.948Z,2.97
2022-08-22T01:56:44.014Z,3.08
2022-08-22T01:59:17.619Z,3.67
2022-08-22T02:02:21.869Z,3.15
2022-08-22T02:05:12.343Z,3.10
2022-08-22T02:08:04.840Z,3.40
2022-08-22T02:11:11.082Z,2.88
2022-08-22T02:13:56.317Z,2.92
2022-08-22T02:16:35.879Z,3.55
2022-08-22T02:19:20.253Z,3.25
2022-08-22T02:21:51.253Z,3.20
2022-08-22T02:24:32.073Z,3.17
2022-08-22T02:27:06.568Z,4.03
2022-08-22T02:29:45.765Z,3.20
2022-08-22T02:32:25.931Z,3.10
2022-08-22T02:35:04.245Z,3.58
2022-08-22T02:37:57.179Z,3.60
2022-08-22T02:40:49.635Z,3.45
2022-08-22T02:43:52.694Z,3.65
2022-08-22T02:46:29.614Z,3.10
2022-08-22T02:49:27.618Z,3.45
2022-08-22T02:52:16.505Z,3.83
2022-08-22T02:54:51.469Z,3.53
2022-08-22T02:57:31.375Z,3.90
2022-08-22T03:00:31.918Z,3.15
2022-08-22T03:02:58.643Z,3.92
2022-08-22T03:05:47.660Z,3.55
2022-08-22T03:08:16.454Z,3.88
2022-08-22T03:10:48.419Z,4.57
2022-08-22T03:13:46.723Z,4.20
2022-08-22T03:16:29.509Z,3.55
2022-08-22T03:19:22.991Z,4.15
2022-08-22T03:21:55.163Z,4.10
2022-08-22T03:24:33.345Z,5.03
2022-08-22T03:27:10.124Z,5.40
2022-08-22T03:29:41.195Z,6.78
2022-08-22T03:32:06.917Z,5.70
2022-08-22T03:34:33.390Z,4.55
2022-08-22T03:37:14.550Z,5.82
2022-08-22T03:39:56.927Z,4.93
2022-08-22T03:42:38.017Z,5.50
2022-08-22T03:45:47.620Z,4.05
2022-08-22T03:48:13.362Z,5.20
2022-08-22T03:51:03.712Z,5.40
2022-08-22T03:53:53.643Z,4.82
2022-08-22T03:56:40.966Z,4.40
2022-08-22T03:59:31.355Z,5.78
2022-08-22T04:02:24.728Z,5.68
2022-08-22T04:05:14.929Z,5.38
2022-08-22T04:07:52.747Z,5.45
2022-08-22T04:10:43.431Z,5.55
2022-08-22T04:13:39.865Z,5.38
2022-08-22T04:16:33.863Z,5.43
2022-08-22T04:19:12.622Z,5.50
2022-08-22T04:21:48.499Z,6.30
2022-08-22T04:24:26.593Z,6.50
2022-08-22T04:26:55.954Z,6.28
2022-08-22T04:29:30.628Z,6.63
2022-08-22T04:32:07.102Z,6.38
2022-08-22T04:35:12.729Z,7.30
2022-08-22T04:37:49.903Z,7.20
2022-08-22T04:40:33.677Z,6.28
2022-08-22T04:43:40.718Z,6.75
2022-08-22T04:46:40.918Z,6.68
2022-08-22T04:49:15.017Z,8.68
2022-08-22T04:52:13.089Z,10.20
2022-08-22T04:55:01.323Z,5.13
2022-08-22T04:57:33.274Z,4.75
2022-08-22T05:00:08.349Z,4.03
2022-08-22T05:02:38.153Z,4.78
2022-08-22T05:05:14.343Z,4.72
2022-08-22T05:07:45.287Z,4.13
2022-08-22T05:10:25.101Z,4.45
2022-08-22T05:12:57.032Z,4.10
2022-08-22T05:15:32.514Z,4.32
2022-08-22T05:18:06.148Z,4.90
2022-08-22T05:20:33.778Z,5.18
2022-08-22T05:23:16.919Z,5.15
2022-08-22T05:25:48.114Z,4.10
2022-08-22T05:28:35.393Z,3.80
2022-08-22T05:31:13.559Z,3.85
2022-08-22T05:33:47.286Z,4.05
2022-08-22T05:36:20.032Z,3.78
2022-08-22T05:39:00.091Z,2.63
2022-08-22T05:41:31.139Z,2.85
2022-08-22T05:43:57.523Z,2.78
2022-08-22T05:46:40.502Z,2.80
2022-08-22T05:49:21.884Z,2.60
2022-08-22T05:52:02.130Z,2.38
2022-08-22T05:54:34.235Z,2.60
2022-08-22T05:57:30.683Z,2.63
2022-08-22T06:00:14.370Z,2.30
2022-08-22T06:03:12.634Z,3.30
2022-08-22T06:05:43.028Z,1.90
2022-08-22T06:08:32.745Z,2.05
2022-08-22T06:11:06.722Z,2.25
2022-08-22T06:13:41.533Z,2.15
2022-08-22T06:16:17.990Z,2.20
2022-08-22T06:18:45.191Z,1.90
2022-08-22T06:21:19.923Z,2.03
2022-08-22T06:23:59.247Z,2.10
2022-08-22T06:26:30.769Z,1.98
2022-08-22T06:29:00.048Z,2.15
2022-08-22T06:31:31.685Z,1.60
2022-08-22T06:34:08.440Z,2.10
2022-08-22T06:36:37.962Z,2.25
2022-08-22T06:39:12.832Z,1.80
2022-08-22T06:41:46.709Z,1.95
2022-08-22T06:44:17.384Z,2.00
2022-08-22T06:46:47.019Z,1.80
2022-08-22T06:49:14.162Z,1.60
2022-08-22T06:51:40.901Z,1.50
2022-08-22T06:54:17.106Z,1.63
2022-08-22T06:56:46.268Z,2.15
2022-08-22T06:59:16.582Z,1.48
2022-08-22T07:01:56.231Z,1.42
2022-08-22T07:04:27.223Z,1.38
2022-08-22T07:06:55.147Z,1.45
2022-08-22T07:09:23.699Z,1.55
2022-08-22T07:11:51.487Z,1.27
2022-08-22T07:14:26.542Z,1.60
2022-08-22T07:16:59.189Z,1.70
2022-08-22T07:19:29.054Z,1.73
2022-08-22T07:21:56.511Z,1.65
2022-08-22T07:24:27.512Z,1.42
2022-08-22T07:27:21.906Z,1.50
2022-08-22T07:30:09.965Z,1.48
2022-08-22T07:32:51.363Z,1.40
2022-08-22T07:35:22.676Z,1.25
2022-08-22T07:38:34.092Z,1.20
2022-08-22T07:41:05.658Z,1.75
2022-08-22T07:43:38.881Z,1.23
2022-08-22T07:46:15.613Z,1.33
2022-08-22T07:49:08.211Z,1.60
2022-08-22T07:51:42.756Z,1.40
2022-08-22T07:54:12.636Z,1.50
2022-08-22T07:56:58.923Z,1.35
2022-08-22T07:59:27.510Z,1.30
2022-08-22T08:01:58.054Z,1.23
2022-08-22T08:04:30.007Z,1.48
2022-08-22T08:06:59.776Z,1.45
2022-08-22T08:09:33.592Z,1.30
2022-08-22T08:12:03.297Z,1.33
2022-08-22T08:14:30.172Z,1.10
2022-08-22T08:17:13.882Z,1.60
2022-08-22T08:19:42.506Z,1.40
2022-08-22T08:22:16.380Z,1.27
2022-08-22T08:24:44.878Z,1.40
2022-08-22T08:27:35.582Z,1.42
2022-08-22T08:30:12.235Z,1.30
2022-08-22T08:32:42.873Z,1.30
2022-08-22T08:35:25.557Z,1.20
2022-08-22T08:38:08.839Z,1.30
2022-08-22T08:40:57.572Z,1.38
2022-08-22T08:43:37.408Z,1.30
2022-08-22T08:46:13.564Z,1.42
2022-08-22T08:49:13.399Z,1.10
2022-08-22T08:51:54.695Z,2.38
2022-08-22T08:54:20.957Z,1.42
2022-08-22T08:56:55.196Z,1.88
2022-08-22T08:59:30.824Z,1.67
2022-08-22T09:02:20.426Z,1.30
2022-08-22T09:05:07.596Z,3.35
2022-08-22T09:07:39.221Z,2.40
2022-08-22T09:10:29.332Z,1.85
2022-08-22T09:13:34.502Z,1.73
2022-08-22T09:16:26.752Z,1.63
2022-08-22T09:18:58.642Z,1.70
2022-08-22T09:22:02.089Z,1.30
2022-08-22T09:25:00.924Z,1.98
2022-08-22T09:27:37.273Z,1.75
2022-08-22T09:30:12.133Z,2.40
2022-08-22T09:32:41.519Z,2.28
2022-08-22T09:35:22.380Z,2.30
2022-08-22T09:38:19.073Z,1.80
2022-08-22T09:40:45.450Z,2.03
2022-08-22T09:43:21.179Z,2.50
2022-08-22T09:46:02.121Z,2.20
2022-08-22T09:48:59.450Z,2.58
2022-08-22T09:52:15.279Z,1.80
2022-08-22T09:55:08.814Z,2.25
2022-08-22T09:57:53.767Z,1.80
2022-08-22T10:00:34.361Z,2.13
2022-08-22T10:03:19.149Z,1.85
2022-08-22T10:05:56.093Z,1.98
2022-08-22T10:08:32.950Z,1.92
2022-08-22T10:11:09.079Z,2.22
2022-08-22T10:13:57.326Z,1.63
2022-08-22T10:16:37.959Z,1.90
2022-08-22T10:19:27.263Z,2.15
2022-08-22T10:22:29.994Z,1.83
2022-08-22T10:24:59.743Z,1.85
2022-08-22T10:27:51.447Z,2.38
2022-08-22T10:30:49.792Z,1.80
2022-08-22T10:33:23.067Z,1.73
2022-08-22T10:36:00.168Z,1.60
2022-08-22T10:38:44.067Z,1.65
2022-08-22T10:41:38.828Z,1.63
2022-08-22T10:44:17.266Z,2.13
2022-08-22T10:46:56.313Z,1.88
2022-08-22T10:49:39.978Z,1.98
2022-08-22T10:52:19.524Z,1.80
2022-08-22T10:55:09.724Z,2.08
2022-08-22T10:57:57.976Z,1.67
2022-08-22T11:00:46.023Z,1.95
2022-08-22T11:03:47.399Z,1.88
2022-08-22T11:06:25.526Z,1.70
2022-08-22T11:09:30.342Z,2.00
2022-08-22T11:12:18.417Z,1.60
2022-08-22T11:17:59.600Z,1.30
2022-08-22T11:20:29.310Z,2.15
2022-08-22T11:23:27.217Z,1.95
2022-08-22T11:26:29.888Z,2.10
2022-08-22T11:29:29.467Z,1.92
2022-08-22T11:34:56.616Z,1.92
2022-08-22T11:37:56.292Z,1.75
2022-08-22T11:40:34.411Z,1.90
2022-08-22T11:43:02.901Z,2.00
2022-08-22T11:45:37.370Z,1.60
2022-08-22T11:48:26.848Z,2.00
2022-08-22T11:51:13.755Z,2.10
2022-08-22T11:54:08.655Z,1.92
2022-08-22T11:56:40.165Z,1.73
2022-08-22T11:59:27.040Z,1.60
2022-08-22T12:02:04.250Z,1.83
2022-08-22T12:04:43.998Z,2.20
2022-08-22T12:07:30.324Z,1.85
2022-08-22T12:10:13.741Z,1.80
2022-08-22T12:13:02.581Z,1.90
2022-08-22T12:15:39.443Z,2.25
2022-08-22T12:18:09.474Z,1.60
2022-08-22T12:21:16.773Z,1.80
2022-08-22T12:24:21.589Z,1.45
2022-08-22T12:27:18.309Z,1.83
2022-08-22T12:30:13.979Z,2.08
2022-08-22T12:33:04.862Z,2.08
2022-08-22T12:35:56.456Z,1.63
2022-08-22T12:38:38.135Z,1.95
2022-08-22T12:41:35.538Z,1.70
2022-08-22T12:44:28.788Z,2.17
2022-08-22T12:47:05.767Z,1.70
2022-08-22T12:52:33.492Z,2.00
2022-08-22T12:55:43.608Z,1.90
2022-08-22T12:58:33.488Z,1.92
2022-08-22T13:01:05.248Z,2.03
2022-08-22T13:03:44.183Z,1.70
2022-08-22T13:06:34.989Z,1.80
2022-08-22T13:09:11.004Z,1.63
2022-08-22T13:11:40.332Z,1.70
2022-08-22T13:14:09.338Z,1.88
2022-08-22T13:16:55.198Z,1.98
2022-08-22T13:19:25.935Z,2.00
2022-08-22T13:22:20.583Z,1.77
2022-08-22T13:24:51.841Z,1.80
2022-08-22T13:27:51.038Z,1.90
2022-08-22T13:30:32.406Z,1.80
2022-08-22T13:33:21.175Z,1.95
2022-08-22T13:35:55.056Z,1.95
2022-08-22T13:38:37.998Z,1.88
2022-08-22T13:41:18.648Z,1.77
2022-08-22T13:44:14.231Z,2.05
2022-08-22T13:47:10.837Z,1.75
2022-08-22T13:49:41.981Z,2.20
2022-08-22T13:52:30.282Z,2.47
2022-08-22T13:55:12.694Z,1.98
2022-08-22T13:57:51.952Z,1.50
2022-08-22T14:00:25.394Z,1.83
2022-08-22T14:03:08.037Z,2.00
2022-08-22T14:05:43.206Z,1.70
2022-08-22T14:08:15.586Z,1.85
2022-08-22T14:10:50.472Z,1.98
2022-08-22T14:13:46.379Z,2.00
2022-08-22T14:16:21.878Z,2.67
2022-08-22T14:18:53.283Z,3.70
2022-08-22T14:21:33.573Z,2.03
2022-08-22T14:24:18.983Z,1.70
2022-08-22T14:26:53.139Z,1.95
2022-08-22T14:29:28.677Z,1.95
2022-08-22T14:32:30.902Z,1.90
2022-08-22T14:35:37.639Z,1.60
2022-08-22T14:38:29.710Z,2.13
2022-08-22T14:41:09.385Z,1.98
2022-08-22T14:43:47.421Z,1.70
2022-08-22T14:46:23.479Z,2.00
2022-08-22T14:48:55.272Z,2.30
2022-08-22T14:51:24.485Z,2.38
2022-08-22T14:53:50.746Z,2.15
2022-08-22T14:56:28.971Z,1.98
2022-08-22T14:59:02.193Z,2.20
2022-08-22T15:01:32.855Z,2.50
2022-08-22T15:04:01.667Z,1.70
2022-08-22T15:06:38.896Z,2.20
2022-08-22T15:09:40.473Z,2.20
2022-08-22T15:12:20.815Z,2.00
2022-08-22T15:14:52.321Z,2.05
2022-08-22T15:17:51.216Z,2.05
2022-08-22T15:20:28.062Z,2.03
2022-08-22T15:22:58.421Z,2.03
2022-08-22T15:25:30.794Z,1.50
2022-08-22T15:28:05.735Z,1.90
2022-08-22T15:30:35.740Z,2.25
2022-08-22T15:33:11.842Z,2.00
2022-08-22T15:35:39.087Z,1.90
2022-08-22T15:38:24.529Z,1.75
2022-08-22T15:40:55.291Z,2.13
2022-08-22T15:43:35.382Z,2.00
2022-08-22T15:46:20.037Z,1.92
2022-08-22T15:49:10.651Z,1.92
2022-08-22T15:51:58.729Z,1.90
2022-08-22T15:54:57.098Z,2.38
2022-08-22T15:57:32.017Z,2.20
2022-08-22T16:00:12.022Z,1.60
2022-08-22T16:02:54.007Z,1.60
2022-08-22T16:05:36.294Z,2.00
2022-08-22T16:08:15.826Z,2.08
2022-08-22T16:10:53.019Z,2.15
2022-08-22T16:13:26.191Z,2.10
2022-08-22T16:16:00.406Z,1.75
2022-08-22T16:18:44.401Z,2.07
2022-08-22T16:21:14.217Z,2.00
2022-08-22T16:23:49.626Z,2.22
2022-08-22T16:26:17.421Z,2.00
2022-08-22T16:28:59.170Z,2.42
2022-08-22T16:31:33.209Z,2.22
2022-08-22T16:34:17.320Z,2.40
2022-08-22T16:36:49.179Z,2.10
2022-08-22T16:39:20.829Z,2.38
2022-08-22T16:41:49.580Z,2.40
2022-08-22T16:44:18.460Z,1.98
2022-08-22T16:46:46.148Z,2.35
2022-08-22T16:49:26.136Z,2.10
2022-08-22T16:52:20.176Z,2.00
2022-08-22T16:54:50.521Z,1.90
2022-08-22T16:57:24.402Z,2.00
2022-08-22T17:00:03.900Z,1.88
2022-08-22T17:02:35.476Z,2.10
2022-08-22T17:05:16.472Z,1.90
2022-08-22T17:08:02.022Z,2.40
2022-08-22T17:11:08.339Z,2.42
2022-08-22T17:13:38.848Z,2.10
2022-08-22T17:16:16.463Z,1.73
2022-08-22T17:19:16.160Z,2.10
2022-08-22T17:21:53.839Z,2.10
2022-08-22T17:24:33.978Z,1.88
2022-08-22T17:27:07.248Z,2.20
2022-08-22T17:29:41.889Z,2.00
2022-08-22T17:32:43.887Z,2.10
2022-08-22T17:35:15.765Z,1.58
2022-08-22T17:38:04.683Z,1.77
2022-08-22T17:40:36.193Z,1.70
2022-08-22T17:43:20.179Z,2.08
2022-08-22T17:46:07.639Z,1.63
2022-08-22T17:49:00.238Z,2.05
2022-08-22T17:51:32.675Z,1.88
2022-08-22T17:54:04.864Z,1.92
2022-08-22T17:56:40.917Z,2.47
2022-08-22T17:59:10.891Z,2.10
2022-08-22T18:01:40.696Z,2.45
2022-08-22T18:04:15.991Z,2.60
2022-08-22T18:07:19.841Z,2.20
2022-08-22T18:09:56.792Z,2.17
2022-08-22T18:13:07.148Z,2.20
2022-08-22T18:15:46.404Z,2.22
2022-08-22T18:18:29.939Z,1.80
2022-08-22T18:21:02.353Z,2.35
2022-08-22T18:23:46.817Z,2.05
2022-08-22T18:26:37.620Z,1.85
2022-08-22T18:29:44.892Z,2.28
2022-08-22T18:32:27.674Z,1.80
2022-08-22T18:35:00.150Z,2.13
2022-08-22T18:37:32.233Z,2.10
2022-08-22T18:40:09.826Z,2.00
2022-08-22T18:42:43.091Z,2.22
2022-08-22T18:45:44.457Z,2.08
2022-08-22T18:48:26.534Z,2.38
2022-08-22T18:51:13.184Z,1.95
2022-08-22T18:53:49.672Z,2.17
2022-08-22T18:56:18.435Z,2.13
2022-08-22T18:59:05.682Z,2.28
2022-08-22T19:01:52.010Z,2.20
2022-08-22T19:04:21.074Z,2.03
2022-08-22T19:07:09.033Z,2.03
2022-08-22T19:10:15.266Z,2.20
2022-08-22T19:13:00.284Z,2.38
2022-08-22T19:15:26.748Z,2.10
2022-08-22T19:18:30.240Z,2.05
2022-08-22T19:21:41.297Z,1.67
2022-08-22T19:24:29.245Z,1.85
2022-08-22T19:27:10.272Z,1.80
2022-08-22T19:29:36.149Z,1.77
2022-08-22T19:32:05.948Z,2.38
2022-08-22T19:34:42.138Z,2.08
2022-08-22T19:37:33.751Z,1.80
2022-08-22T19:40:11.116Z,1.98
2022-08-22T19:42:40.698Z,2.22
2022-08-22T19:45:06.865Z,2.33
2022-08-22T19:47:37.131Z,1.77
2022-08-22T19:50:28.585Z,2.10
2022-08-22T19:52:57.237Z,2.30
2022-08-22T19:55:38.417Z,1.80
2022-08-22T19:58:32.761Z,1.90
2022-08-22T20:01:05.499Z,2.25
2022-08-22T20:04:06.776Z,1.80
2022-08-22T20:06:50.974Z,2.00
2022-08-22T20:09:50.738Z,2.10
2022-08-22T20:12:28.428Z,2.15
2022-08-22T20:14:55.116Z,1.90
2022-08-22T20:17:24.018Z,1.92
2022-08-22T20:23:06.295Z,2.28
2022-08-22T20:25:51.115Z,2.40
2022-08-22T20:28:35.561Z,2.58
2022-08-22T20:31:08.440Z,2.55
2022-08-22T20:33:41.815Z,2.05
2022-08-22T20:36:27.979Z,2.40
2022-08-22T20:39:15.297Z,2.20
2022-08-22T20:41:46.906Z,2.13
2022-08-22T20:44:22.039Z,2.28
2022-08-22T20:46:48.191Z,1.58
2022-08-22T20:49:28.032Z,2.00
2022-08-22T20:52:03.884Z,2.10
2022-08-22T20:54:34.170Z,2.40
2022-08-22T20:57:15.237Z,2.00
2022-08-22T20:59:50.602Z,1.88
2022-08-22T21:02:26.786Z,2.20
2022-08-22T21:05:01.178Z,1.83
2022-08-22T21:07:29.269Z,2.10
2022-08-22T21:10:37.110Z,2.35
2022-08-22T21:13:11.221Z,2.30
2022-08-22T21:15:43.634Z,2.20
2022-08-22T21:18:11.812Z,2.17
2022-08-22T21:20:39.041Z,2.10
2022-08-22T21:23:11.388Z,2.20
2022-08-22T21:26:04.251Z,2.65
2022-08-22T21:28:39.321Z,2.55
2022-08-22T21:31:12.754Z,2.20
2022-08-22T21:33:45.092Z,2.55
2022-08-22T21:36:14.866Z,2.75
2022-08-22T21:38:48.166Z,2.15
2022-08-22T21:41:17.581Z,2.22
2022-08-22T21:43:48.084Z,2.55
2022-08-22T21:46:28.137Z,2.00
2022-08-22T21:49:03.487Z,2.10
2022-08-22T21:51:43.139Z,2.85
2022-08-22T21:54:41.074Z,2.03
2022-08-22T21:57:09.936Z,2.15
2022-08-22T21:59:59.334Z,2.17
2022-08-22T22:02:31.583Z,2.22
2022-08-22T22:05:10.046Z,2.17
2022-08-22T22:07:42.016Z,2.30
2022-08-22T22:10:12.364Z,2.20
2022-08-22T22:12:41.005Z,2.17
2022-08-22T22:15:08.731Z,2.08
2022-08-22T22:17:34.604Z,1.88
2022-08-22T22:20:00.563Z,2.08
2022-08-22T22:22:26.411Z,1.98
2022-08-22T22:24:52.206Z,2.38
2022-08-22T22:27:18.114Z,2.05
2022-08-22T22:29:44.060Z,1.88
2022-08-22T22:32:09.895Z,2.03
2022-08-22T22:34:36.364Z,1.95
2022-08-22T22:37:02.160Z,2.10
2022-08-22T22:39:28.133Z,2.05
2022-08-22T22:41:54.039Z,2.20
2022-08-22T22:44:21.634Z,2.05
2022-08-22T22:46:48.153Z,1.70
2022-08-22T22:49:13.986Z,2.05
2022-08-22T22:51:39.843Z,2.10
2022-08-22T22:54:05.945Z,2.17
2022-08-22T22:56:31.873Z,2.17
2022-08-22T22:59:00.884Z,1.90
2022-08-22T23:01:59.485Z,2.25
2022-08-22T23:04:25.377Z,2.25
2022-08-22T23:06:51.208Z,2.28
2022-08-22T23:09:17.028Z,1.95
2022-08-22T23:11:43.864Z,2.20
2022-08-22T23:14:09.721Z,2.10
2022-08-22T23:16:39.686Z,1.85
2022-08-22T23:19:08.513Z,2.10
2022-08-22T23:21:34.340Z,2.08
2022-08-22T23:24:00.289Z,1.92
2022-08-22T23:26:27.442Z,1.85
2022-08-22T23:28:55.029Z,2.05
2022-08-22T23:31:32.044Z,1.83
2022-08-22T23:34:10.122Z,1.60
2022-08-22T23:36:36.806Z,2.00
2022-08-22T23:39:04.684Z,1.73
2022-08-22T23:41:30.769Z,2.35
2022-08-22T23:43:56.649Z,1.80
2022-08-22T23:46:25.475Z,2.17
2022-08-22T23:48:52.053Z,1.95
2022-08-22T23:51:23.141Z,1.95
2022-08-22T23:53:50.154Z,1.55
2022-08-22T23:56:24.643Z,1.75
2022-08-22T23:58:50.700Z,1.60
